Time;durP1;ratioP1;P1;durP2;ratioP2;P2;SDS_P1;SDS_P2;PMS_P1;PMS_P2;Temp;Humidity;BMP_temperature;BMP_pressure;BME280_temperature;BME280_humidity;BME280_pressure;Samples;Min_cycle;Max_cycle;Signal;HPM_P1;HPM_P2
2022/07/27 00:00:51;;;;;;;2.17;0.60;;;22.20;50.40;;;;;;20815883;28;20076;-74
2022/07/27 00:10:52;;;;;;;2.20;0.70;;;22.20;50.50;;;;;;20831098;28;20033;-74
2022/07/27 00:20:52;;;;;;;2.85;1.13;;;22.10;50.50;;;;;;20813662;28;20635;-75
2022/07/27 00:30:53;;;;;;;2.03;0.47;;;22.10;50.60;;;;;;20814267;28;20044;-76
2022/07/27 00:40:54;;;;;;;3.80;0.90;;;21.90;50.50;;;;;;20813034;28;20033;-75
2022/07/27 00:50:54;;;;;;;2.03;0.55;;;21.90;50.60;;;;;;20811331;28;20472;-75
2022/07/27 01:00:57;;;;;;;2.80;0.50;;;21.90;50.60;;;;;;21164802;22;20451;-76
2022/07/27 01:10:58;;;;;;;2.90;0.85;;;21.80;50.50;;;;;;20729013;28;20472;-75
2022/07/27 01:21:03;;;;;;;1.80;0.50;;;21.70;50.40;;;;;;20727720;28;20411;-75
2022/07/27 01:31:04;;;;;;;2.55;0.65;;;21.60;50.20;;;;;;20727682;28;20038;-74
2022/07/27 01:41:04;;;;;;;2.60;0.63;;;21.60;50.30;;;;;;20726652;28;20038;-73
2022/07/27 01:51:05;;;;;;;2.72;0.70;;;21.50;50.40;;;;;;20725765;28;20091;-73
2022/07/27 02:01:06;;;;;;;4.45;1.00;;;21.50;50.60;;;;;;20726418;28;20065;-75
2022/07/27 02:21:25;;;;;;;5.32;1.30;;;21.40;50.80;;;;;;20734684;28;20384;-75
2022/07/27 02:31:27;;;;;;;5.85;0.98;;;21.40;50.90;;;;;;20755831;28;20046;-77
2022/07/27 02:41:27;;;;;;;2.70;0.65;;;21.30;51.00;;;;;;20731627;28;20457;-76
2022/07/27 02:51:28;;;;;;;6.05;1.00;;;21.30;51.20;;;;;;20723061;28;20475;-74
2022/07/27 03:01:28;;;;;;;2.75;0.63;;;21.20;51.20;;;;;;20722050;28;20519;-74
2022/07/27 03:11:29;;;;;;;6.07;1.02;;;21.10;51.40;;;;;;20701750;28;20120;-74
2022/07/27 03:21:30;;;;;;;2.78;0.90;;;21.10;51.50;;;;;;20737205;28;20033;-75
2022/07/27 03:31:31;;;;;;;1.75;0.70;;;21.10;51.60;;;;;;20736188;28;20029;-74
2022/07/27 03:41:31;;;;;;;1.20;0.73;;;21.00;51.60;;;;;;20716679;28;20069;-76
2022/07/27 03:51:32;;;;;;;2.65;0.80;;;21.00;51.70;;;;;;20736216;28;20056;-79
2022/07/27 04:01:32;;;;;;;0.82;0.43;;;21.00;51.70;;;;;;20729449;28;20034;-73
2022/07/27 04:11:33;;;;;;;1.92;0.50;;;21.00;51.80;;;;;;20728618;28;20034;-74
2022/07/27 04:21:34;;;;;;;5.22;0.60;;;21.00;51.80;;;;;;20726565;28;20121;-75
2022/07/27 04:31:34;;;;;;;3.88;1.00;;;21.00;51.90;;;;;;20728013;28;20042;-75
2022/07/27 04:41:35;;;;;;;1.00;0.45;;;21.00;52.00;;;;;;20724858;28;20092;-75
2022/07/27 04:51:35;;;;;;;0.65;0.43;;;21.00;52.10;;;;;;20725457;28;20125;-75
2022/07/27 05:01:36;;;;;;;3.13;0.73;;;21.00;52.20;;;;;;20702167;28;20046;-75
2022/07/27 05:11:37;;;;;;;2.25;0.70;;;21.00;52.40;;;;;;20708134;28;20331;-76
2022/07/27 05:21:37;;;;;;;2.53;0.40;;;21.00;52.50;;;;;;20706727;28;20038;-77
2022/07/27 05:31:38;;;;;;;1.10;0.52;;;21.00;52.70;;;;;;20706840;28;20492;-74
2022/07/27 05:41:39;;;;;;;2.97;0.70;;;20.90;52.80;;;;;;20705672;28;20117;-76
2022/07/27 05:51:39;;;;;;;0.52;0.30;;;21.00;53.00;;;;;;20705846;28;20196;-75
2022/07/27 06:01:40;;;;;;;2.28;0.60;;;21.00;53.10;;;;;;20731580;28;20042;-75
2022/07/27 06:11:41;;;;;;;2.47;0.70;;;21.00;53.10;;;;;;20720906;28;20052;-75
2022/07/27 06:21:41;;;;;;;2.60;0.65;;;21.00;53.30;;;;;;20720492;28;20034;-76
2022/07/27 06:31:42;;;;;;;0.88;0.40;;;21.10;53.40;;;;;;20753644;28;20121;-77
2022/07/27 06:41:42;;;;;;;1.92;0.75;;;21.10;53.50;;;;;;20708915;28;20061;-76
2022/07/27 06:51:46;;;;;;;0.80;0.35;;;21.10;53.40;;;;;;20734283;28;20372;-76
2022/07/27 07:01:47;;;;;;;3.00;0.57;;;21.10;53.60;;;;;;20716108;28;20069;-75
2022/07/27 07:11:48;;;;;;;1.95;0.52;;;21.10;53.60;;;;;;20740693;28;20091;-75
2022/07/27 07:21:48;;;;;;;5.63;0.57;;;21.20;53.70;;;;;;20748619;28;20041;-77
2022/07/27 07:31:49;;;;;;;2.93;0.53;;;21.20;53.80;;;;;;20710408;28;20034;-76
2022/07/27 07:41:51;;;;;;;2.15;0.73;;;21.20;53.80;;;;;;20758878;28;20388;-77
2022/07/27 07:51:52;;;;;;;5.50;1.08;;;21.30;54.00;;;;;;20727792;28;20076;-75
2022/07/27 08:01:52;;;;;;;2.67;1.00;;;21.30;53.90;;;;;;20715637;28;20129;-76
2022/07/27 08:11:53;;;;;;;2.53;0.63;;;21.40;54.00;;;;;;20723643;28;20551;-76
2022/07/27 08:21:54;;;;;;;4.65;0.75;;;21.40;53.90;;;;;;20741119;28;20034;-78
2022/07/27 08:31:54;;;;;;;3.08;1.02;;;21.40;53.80;;;;;;20719249;28;20043;-76
2022/07/27 08:41:56;;;;;;;2.05;0.95;;;21.40;53.70;;;;;;20703643;28;20034;-74
2022/07/27 08:51:57;;;;;;;3.50;0.60;;;21.40;53.50;;;;;;20723959;28;20041;-77
2022/07/27 09:01:57;;;;;;;3.90;0.60;;;21.40;53.30;;;;;;20735773;28;20056;-76
2022/07/27 09:12:04;;;;;;;3.20;0.57;;;21.40;53.00;;;;;;20708099;28;20133;-75
2022/07/27 09:22:04;;;;;;;2.45;0.57;;;21.40;52.60;;;;;;20714516;28;20441;-75
2022/07/27 09:32:15;;;;;;;2.58;0.47;;;21.40;52.30;;;;;;20721298;28;20124;-76
2022/07/27 09:42:17;;;;;;;3.05;0.38;;;21.50;52.00;;;;;;20709867;28;20100;-84
2022/07/27 09:52:25;;;;;;;6.50;3.28;;;21.50;51.80;;;;;;20743523;28;20034;-82
2022/07/27 10:02:26;;;;;;;9.05;3.83;;;21.50;51.70;;;;;;20720014;28;20165;-79
2022/07/27 10:12:30;;;;;;;6.22;2.47;;;21.50;51.90;;;;;;20716701;28;20054;-78
2022/07/27 10:22:52;;;;;;;5.63;2.40;;;21.50;52.00;;;;;;20722847;28;20495;-82
2022/07/27 10:32:53;;;;;;;6.05;1.67;;;21.60;52.10;;;;;;20727872;28;20038;-74
2022/07/27 10:43:17;;;;;;;3.70;1.42;;;21.50;52.30;;;;;;20729068;28;20053;-73
2022/07/27 10:53:17;;;;;;;1.55;0.85;;;21.60;52.00;;;;;;20754612;28;20366;-78
2022/07/27 11:03:32;;;;;;;1.50;0.77;;;21.60;52.00;;;;;;20716625;28;20172;-74
2022/07/27 11:13:33;;;;;;;4.10;0.80;;;21.60;51.70;;;;;;20754238;28;20034;-80
2022/07/27 11:23:34;;;;;;;6.18;1.23;;;21.60;51.60;;;;;;20735849;28;20542;-78
2022/07/27 11:33:34;;;;;;;2.15;0.60;;;21.60;51.40;;;;;;20751145;28;20049;-84
2022/07/27 11:43:42;;;;;;;1.50;0.52;;;21.60;51.20;;;;;;20719315;28;20087;-82
2022/07/27 11:53:42;;;;;;;3.38;0.77;;;21.60;50.90;;;;;;20750871;28;20118;-77
2022/07/27 12:03:43;;;;;;;1.77;0.70;;;21.70;50.90;;;;;;20707941;28;20129;-76
2022/07/27 12:13:43;;;;;;;1.27;0.40;;;21.70;50.80;;;;;;20751119;28;20062;-77
2022/07/27 12:23:51;;;;;;;1.85;0.40;;;21.60;50.70;;;;;;20734250;28;20040;-76
2022/07/27 12:33:56;;;;;;;2.97;0.90;;;21.60;50.50;;;;;;20716963;28;20060;-76
2022/07/27 12:44:06;;;;;;;;;;;21.60;50.20;;;;;;20715629;28;20099;-75
2022/07/27 12:54:07;;;;;;;1.80;0.60;;;21.60;50.00;;;;;;20749752;28;20277;-76
2022/07/27 13:04:07;;;;;;;3.05;0.50;;;21.70;50.10;;;;;;20706099;28;20041;-75
2022/07/27 13:14:08;;;;;;;1.40;0.40;;;21.70;50.00;;;;;;20728181;28;20069;-77
2022/07/27 13:24:08;;;;;;;3.78;0.47;;;21.70;49.90;;;;;;20744434;28;20050;-77
2022/07/27 13:34:09;;;;;;;3.50;0.80;;;21.70;50.00;;;;;;20710550;28;20030;-79
2022/07/27 13:44:10;;;;;;;4.05;0.50;;;21.70;50.20;;;;;;20726499;28;20030;-75
2022/07/27 13:54:11;;;;;;;3.15;0.52;;;21.70;50.20;;;;;;20727782;28;20034;-81
2022/07/27 14:04:12;;;;;;;3.33;0.70;;;21.80;50.20;;;;;;20722882;28;20041;-77
2022/07/27 14:14:12;;;;;;;2.03;0.70;;;21.80;50.50;;;;;;20707068;28;20065;-74
2022/07/27 14:24:13;;;;;;;4.13;0.88;;;21.80;50.60;;;;;;20739981;28;20551;-76
2022/07/27 14:34:14;;;;;;;2.28;0.50;;;21.80;50.60;;;;;;20758080;28;20034;-80
2022/07/27 14:44:15;;;;;;;4.90;0.65;;;21.80;50.60;;;;;;20693805;28;20095;-78
2022/07/27 14:54:15;;;;;;;6.88;0.60;;;21.90;50.70;;;;;;20752338;28;20484;-75
2022/07/27 15:04:16;;;;;;;4.50;1.08;;;22.00;50.40;;;;;;20718835;28;20057;-73
2022/07/27 15:14:16;;;;;;;3.33;0.60;;;22.10;50.20;;;;;;20753280;28;20659;-74
2022/07/27 15:24:17;;;;;;;2.33;0.50;;;22.20;49.80;;;;;;20711428;28;20116;-70
2022/07/27 15:34:18;;;;;;;4.47;0.83;;;22.20;49.60;;;;;;20712888;28;20041;-73
2022/07/27 15:44:19;;;;;;;1.80;0.57;;;22.10;49.30;;;;;;20730464;28;20360;-72
2022/07/27 15:54:19;;;;;;;3.38;0.93;;;22.10;48.90;;;;;;20714638;28;20291;-73
2022/07/27 16:04:20;;;;;;;6.18;0.70;;;22.20;48.60;;;;;;20715454;28;20149;-74
2022/07/27 16:14:21;;;;;;;2.30;0.95;;;22.20;48.30;;;;;;20712091;28;20369;-71
2022/07/27 16:24:22;;;;;;;5.47;1.20;;;22.20;48.30;;;;;;20726208;28;20575;-70
2022/07/27 16:34:27;;;;;;;2.25;0.80;;;22.20;48.20;;;;;;20725870;28;20034;-70
2022/07/27 16:44:28;;;;;;;3.27;1.70;;;22.30;48.10;;;;;;20709517;28;20030;-70
2022/07/27 16:54:28;;;;;;;5.22;1.60;;;22.30;48.30;;;;;;20701868;28;20038;-70
2022/07/27 17:04:29;;;;;;;3.50;0.83;;;22.30;48.30;;;;;;20711032;28;20120;-74
2022/07/27 17:14:29;;;;;;;3.88;1.20;;;22.30;48.30;;;;;;20707346;28;20291;-75
2022/07/27 17:24:30;;;;;;;5.25;1.10;;;22.30;47.90;;;;;;20709552;28;20046;-77
2022/07/27 17:34:32;;;;;;;3.35;1.15;;;22.30;48.00;;;;;;20727502;28;20505;-87
2022/07/27 17:44:37;;;;;;;3.97;0.80;;;22.30;48.20;;;;;;20735634;28;20133;-75
2022/07/27 17:54:38;;;;;;;;;;;22.40;48.30;;;;;;20715254;28;20399;-74
2022/07/27 18:04:39;;;;;;;4.65;1.00;;;22.40;48.30;;;;;;20726479;28;20334;-77
2022/07/27 18:15:45;;;;;;;4.35;0.60;;;22.40;48.40;;;;;;20705970;28;20042;-74
2022/07/27 18:25:02;;;;;;;3.90;0.80;;;22.30;48.50;;;;;;20715229;28;20097;-74
2022/07/27 18:35:04;;;;;;;1.50;0.70;;;22.30;48.50;;;;;;20731724;28;20512;-74
2022/07/27 18:45:05;;;;;;;3.00;0.70;;;22.20;48.30;;;;;;20729251;28;20100;-74
2022/07/27 18:55:06;;;;;;;2.00;0.45;;;22.20;48.30;;;;;;20734555;28;20066;-75
2022/07/27 19:05:07;;;;;;;3.00;0.47;;;22.20;48.70;;;;;;20743461;28;20042;-76
2022/07/27 19:15:08;;;;;;;1.13;0.65;;;22.20;49.10;;;;;;20753291;28;20100;-74
2022/07/27 19:25:08;;;;;;;1.37;0.67;;;22.10;49.00;;;;;;20728632;28;20528;-75
2022/07/27 19:35:10;;;;;;;2.25;0.57;;;22.10;48.90;;;;;;20722134;28;20073;-75
2022/07/27 19:45:11;;;;;;;1.92;0.60;;;22.00;48.80;;;;;;20725098;28;20512;-74
2022/07/27 19:55:11;;;;;;;2.65;0.50;;;21.90;48.80;;;;;;20734790;28;20063;-75
2022/07/27 20:05:12;;;;;;;2.35;0.70;;;21.80;48.80;;;;;;20754219;28;20038;-77
2022/07/27 20:15:13;;;;;;;2.72;0.88;;;21.80;48.80;;;;;;20733618;28;20046;-76
2022/07/27 20:25:17;;;;;;;5.90;0.50;;;21.70;48.90;;;;;;20732967;28;20030;-77
2022/07/27 20:35:18;;;;;;;5.38;0.63;;;21.60;48.90;;;;;;20700902;28;20041;-76
2022/07/27 20:45:19;;;;;;;3.28;0.68;;;21.60;49.00;;;;;;20733567;28;20121;-78
2022/07/27 20:55:19;;;;;;;3.22;0.90;;;21.50;49.00;;;;;;20730974;28;20049;-78
2022/07/27 21:05:20;;;;;;;3.22;0.65;;;21.50;49.10;;;;;;20730158;28;20044;-78
2022/07/27 21:15:21;;;;;;;2.45;0.82;;;21.50;49.10;;;;;;20713533;28;20041;-77
2022/07/27 21:25:22;;;;;;;1.65;0.80;;;21.40;49.00;;;;;;20712723;28;20378;-76
2022/07/27 21:35:22;;;;;;;1.52;0.65;;;21.40;49.10;;;;;;20711630;28;20117;-78
2022/07/27 21:45:23;;;;;;;2.70;0.97;;;21.40;49.30;;;;;;20711877;28;20120;-77
2022/07/27 21:55:24;;;;;;;2.13;0.80;;;21.30;49.30;;;;;;20759385;28;20300;-77
2022/07/27 22:05:26;;;;;;;2.83;0.90;;;21.20;49.40;;;;;;20715181;28;20038;-78
2022/07/27 22:15:26;;;;;;;1.77;0.80;;;21.20;49.50;;;;;;20726751;28;20172;-77
2022/07/27 22:25:27;;;;;;;2.75;0.77;;;21.10;49.50;;;;;;20726999;28;20057;-76
2022/07/27 22:35:28;;;;;;;2.27;0.87;;;21.10;49.50;;;;;;20712452;28;20125;-77
2022/07/27 22:45:28;;;;;;;4.28;1.02;;;21.00;49.20;;;;;;20725689;28;20277;-77
2022/07/27 22:55:29;;;;;;;1.58;0.77;;;20.90;49.10;;;;;;20740347;28;20041;-77
2022/07/27 23:05:30;;;;;;;1.30;0.55;;;20.90;49.10;;;;;;20714956;28;20392;-77
2022/07/27 23:15:30;;;;;;;2.07;0.90;;;20.80;49.20;;;;;;20721669;28;20164;-76
2022/07/27 23:25:31;;;;;;;2.00;0.90;;;20.70;49.10;;;;;;20721983;28;20287;-76
2022/07/27 23:35:31;;;;;;;3.58;0.90;;;20.60;49.00;;;;;;20737304;28;20415;-75
2022/07/27 23:45:33;;;;;;;3.43;0.77;;;20.50;48.90;;;;;;20737412;28;20100;-77
2022/07/27 23:55:34;;;;;;;1.90;0.57;;;20.50;48.80;;;;;;20720405;28;20289;-77
